sensor_id;sensor_type;location;lat;lon;timestamp;P1;durP1;ratioP1;P2;durP2;ratioP2
84763;SDS011;74992;51.072;6.088;2024-01-07T00:02:42;28.75;;;15.10;;
84763;SDS011;74992;51.072;6.088;2024-01-07T00:05:43;29.85;;;15.57;;
84763;SDS011;74992;51.072;6.088;2024-01-07T00:11:48;28.80;;;16.80;;
84763;SDS011;74992;51.072;6.088;2024-01-07T00:14:50;30.75;;;17.23;;
84763;SDS011;74992;51.072;6.088;2024-01-07T00:17:53;30.70;;;15.48;;
84763;SDS011;74992;51.072;6.088;2024-01-07T00:20:54;31.23;;;15.60;;
84763;SDS011;74992;51.072;6.088;2024-01-07T00:23:56;33.22;;;15.75;;
84763;SDS011;74992;51.072;6.088;2024-01-07T00:26:57;33.40;;;16.83;;
84763;SDS011;74992;51.072;6.088;2024-01-07T00:29:59;32.38;;;15.93;;
84763;SDS011;74992;51.072;6.088;2024-01-07T00:33:00;35.85;;;17.83;;
84763;SDS011;74992;51.072;6.088;2024-01-07T00:36:01;35.20;;;17.27;;
84763;SDS011;74992;51.072;6.088;2024-01-07T00:39:03;33.33;;;17.75;;
84763;SDS011;74992;51.072;6.088;2024-01-07T00:42:04;35.15;;;16.88;;
84763;SDS011;74992;51.072;6.088;2024-01-07T00:45:06;34.47;;;16.92;;
84763;SDS011;74992;51.072;6.088;2024-01-07T00:48:08;34.78;;;17.63;;
84763;SDS011;74992;51.072;6.088;2024-01-07T00:51:10;37.28;;;17.77;;
84763;SDS011;74992;51.072;6.088;2024-01-07T00:54:11;34.08;;;17.40;;
84763;SDS011;74992;51.072;6.088;2024-01-07T00:57:13;35.95;;;18.17;;
84763;SDS011;74992;51.072;6.088;2024-01-07T01:00:14;36.85;;;19.27;;
84763;SDS011;74992;51.072;6.088;2024-01-07T01:03:16;34.85;;;17.92;;
84763;SDS011;74992;51.072;6.088;2024-01-07T01:06:18;40.35;;;18.63;;
84763;SDS011;74992;51.072;6.088;2024-01-07T01:09:19;38.67;;;18.20;;
84763;SDS011;74992;51.072;6.088;2024-01-07T01:12:20;42.60;;;19.15;;
84763;SDS011;74992;51.072;6.088;2024-01-07T01:15:22;38.45;;;18.63;;
84763;SDS011;74992;51.072;6.088;2024-01-07T01:18:23;42.53;;;20.77;;
84763;SDS011;74992;51.072;6.088;2024-01-07T01:21:25;39.58;;;19.13;;
84763;SDS011;74992;51.072;6.088;2024-01-07T01:24:26;49.60;;;20.83;;
84763;SDS011;74992;51.072;6.088;2024-01-07T01:27:28;41.80;;;20.05;;
84763;SDS011;74992;51.072;6.088;2024-01-07T01:30:29;39.80;;;19.58;;
84763;SDS011;74992;51.072;6.088;2024-01-07T01:33:31;42.83;;;19.20;;
84763;SDS011;74992;51.072;6.088;2024-01-07T01:36:33;44.92;;;23.67;;
84763;SDS011;74992;51.072;6.088;2024-01-07T01:39:35;39.22;;;17.80;;
84763;SDS011;74992;51.072;6.088;2024-01-07T01:42:36;34.90;;;16.25;;
84763;SDS011;74992;51.072;6.088;2024-01-07T01:45:37;36.20;;;17.92;;
84763;SDS011;74992;51.072;6.088;2024-01-07T01:48:39;37.45;;;19.02;;
84763;SDS011;74992;51.072;6.088;2024-01-07T01:51:41;40.00;;;19.00;;
84763;SDS011;74992;51.072;6.088;2024-01-07T01:54:43;35.78;;;18.05;;
84763;SDS011;74992;51.072;6.088;2024-01-07T01:57:44;35.90;;;16.50;;
84763;SDS011;74992;51.072;6.088;2024-01-07T02:03:50;31.30;;;15.52;;
84763;SDS011;74992;51.072;6.088;2024-01-07T02:06:53;30.73;;;15.15;;
84763;SDS011;74992;51.072;6.088;2024-01-07T02:09:55;33.08;;;15.77;;
84763;SDS011;74992;51.072;6.088;2024-01-07T02:12:57;32.13;;;16.25;;
84763;SDS011;74992;51.072;6.088;2024-01-07T02:15:58;33.75;;;15.93;;
84763;SDS011;74992;51.072;6.088;2024-01-07T02:19:00;31.83;;;15.23;;
84763;SDS011;74992;51.072;6.088;2024-01-07T02:22:01;30.33;;;14.38;;
84763;SDS011;74992;51.072;6.088;2024-01-07T02:25:02;28.67;;;13.57;;
84763;SDS011;74992;51.072;6.088;2024-01-07T02:28:05;31.05;;;14.32;;
84763;SDS011;74992;51.072;6.088;2024-01-07T02:31:06;30.77;;;15.05;;
84763;SDS011;74992;51.072;6.088;2024-01-07T02:34:10;28.50;;;13.70;;
84763;SDS011;74992;51.072;6.088;2024-01-07T02:37:12;28.77;;;14.77;;
84763;SDS011;74992;51.072;6.088;2024-01-07T02:40:13;27.77;;;12.20;;
84763;SDS011;74992;51.072;6.088;2024-01-07T02:43:15;33.47;;;15.38;;
84763;SDS011;74992;51.072;6.088;2024-01-07T02:46:16;31.67;;;14.43;;
84763;SDS011;74992;51.072;6.088;2024-01-07T02:49:17;29.45;;;13.40;;
84763;SDS011;74992;51.072;6.088;2024-01-07T02:52:23;30.08;;;12.23;;
84763;SDS011;74992;51.072;6.088;2024-01-07T02:55:24;30.42;;;13.88;;
84763;SDS011;74992;51.072;6.088;2024-01-07T02:58:26;29.73;;;13.60;;
84763;SDS011;74992;51.072;6.088;2024-01-07T03:01:28;28.90;;;13.23;;
84763;SDS011;74992;51.072;6.088;2024-01-07T03:04:29;29.70;;;13.27;;
84763;SDS011;74992;51.072;6.088;2024-01-07T03:07:30;27.00;;;13.38;;
84763;SDS011;74992;51.072;6.088;2024-01-07T03:10:32;27.40;;;12.88;;
84763;SDS011;74992;51.072;6.088;2024-01-07T03:13:34;26.85;;;12.65;;
84763;SDS011;74992;51.072;6.088;2024-01-07T03:16:37;26.42;;;12.88;;
84763;SDS011;74992;51.072;6.088;2024-01-07T03:19:39;32.47;;;14.57;;
84763;SDS011;74992;51.072;6.088;2024-01-07T03:22:40;32.00;;;13.57;;
84763;SDS011;74992;51.072;6.088;2024-01-07T03:25:41;29.63;;;13.85;;
84763;SDS011;74992;51.072;6.088;2024-01-07T03:28:43;29.75;;;14.20;;
84763;SDS011;74992;51.072;6.088;2024-01-07T03:31:45;31.38;;;14.05;;
84763;SDS011;74992;51.072;6.088;2024-01-07T03:34:46;28.58;;;13.50;;
84763;SDS011;74992;51.072;6.088;2024-01-07T03:37:47;30.25;;;14.68;;
84763;SDS011;74992;51.072;6.088;2024-01-07T03:40:49;27.85;;;13.55;;
84763;SDS011;74992;51.072;6.088;2024-01-07T03:43:51;29.80;;;14.57;;
84763;SDS011;74992;51.072;6.088;2024-01-07T03:46:53;26.00;;;14.13;;
84763;SDS011;74992;51.072;6.088;2024-01-07T03:49:54;27.80;;;12.93;;
84763;SDS011;74992;51.072;6.088;2024-01-07T03:52:55;29.73;;;13.82;;
84763;SDS011;74992;51.072;6.088;2024-01-07T03:55:57;28.98;;;14.10;;
84763;SDS011;74992;51.072;6.088;2024-01-07T03:58:58;25.13;;;13.35;;
84763;SDS011;74992;51.072;6.088;2024-01-07T04:02:00;23.42;;;11.32;;
84763;SDS011;74992;51.072;6.088;2024-01-07T04:05:02;23.90;;;12.60;;
84763;SDS011;74992;51.072;6.088;2024-01-07T04:08:03;24.02;;;12.00;;
84763;SDS011;74992;51.072;6.088;2024-01-07T04:11:05;26.25;;;11.90;;
84763;SDS011;74992;51.072;6.088;2024-01-07T04:14:06;23.73;;;12.02;;
84763;SDS011;74992;51.072;6.088;2024-01-07T04:17:08;22.88;;;11.10;;
84763;SDS011;74992;51.072;6.088;2024-01-07T04:20:12;30.38;;;14.02;;
84763;SDS011;74992;51.072;6.088;2024-01-07T04:23:14;22.40;;;11.85;;
84763;SDS011;74992;51.072;6.088;2024-01-07T04:26:15;25.27;;;12.85;;
84763;SDS011;74992;51.072;6.088;2024-01-07T04:29:16;25.88;;;13.25;;
84763;SDS011;74992;51.072;6.088;2024-01-07T04:32:18;27.23;;;13.20;;
84763;SDS011;74992;51.072;6.088;2024-01-07T04:35:20;25.83;;;13.05;;
84763;SDS011;74992;51.072;6.088;2024-01-07T04:38:21;27.90;;;14.43;;
84763;SDS011;74992;51.072;6.088;2024-01-07T04:41:23;29.40;;;13.82;;
84763;SDS011;74992;51.072;6.088;2024-01-07T04:44:24;29.63;;;14.32;;
84763;SDS011;74992;51.072;6.088;2024-01-07T04:47:29;24.70;;;13.25;;
84763;SDS011;74992;51.072;6.088;2024-01-07T04:50:34;23.00;;;12.43;;
84763;SDS011;74992;51.072;6.088;2024-01-07T04:53:35;28.98;;;15.45;;
84763;SDS011;74992;51.072;6.088;2024-01-07T04:56:37;27.90;;;14.73;;
84763;SDS011;74992;51.072;6.088;2024-01-07T04:59:40;30.85;;;15.82;;
84763;SDS011;74992;51.072;6.088;2024-01-07T05:02:41;31.60;;;17.02;;
84763;SDS011;74992;51.072;6.088;2024-01-07T05:05:44;34.22;;;16.08;;
84763;SDS011;74992;51.072;6.088;2024-01-07T05:08:47;35.88;;;16.88;;
84763;SDS011;74992;51.072;6.088;2024-01-07T05:11:49;35.45;;;16.88;;
84763;SDS011;74992;51.072;6.088;2024-01-07T05:14:50;32.08;;;15.88;;
84763;SDS011;74992;51.072;6.088;2024-01-07T05:17:52;33.70;;;17.23;;
84763;SDS011;74992;51.072;6.088;2024-01-07T05:20:53;31.67;;;15.95;;
84763;SDS011;74992;51.072;6.088;2024-01-07T05:23:54;32.88;;;15.52;;
84763;SDS011;74992;51.072;6.088;2024-01-07T05:26:56;33.65;;;16.55;;
84763;SDS011;74992;51.072;6.088;2024-01-07T05:30:01;32.33;;;14.73;;
84763;SDS011;74992;51.072;6.088;2024-01-07T05:33:02;33.47;;;16.35;;
84763;SDS011;74992;51.072;6.088;2024-01-07T05:36:04;28.88;;;14.65;;
84763;SDS011;74992;51.072;6.088;2024-01-07T05:39:06;32.95;;;15.52;;
84763;SDS011;74992;51.072;6.088;2024-01-07T05:42:07;31.33;;;15.32;;
84763;SDS011;74992;51.072;6.088;2024-01-07T05:45:09;33.55;;;15.95;;
84763;SDS011;74992;51.072;6.088;2024-01-07T05:48:10;34.08;;;14.68;;
84763;SDS011;74992;51.072;6.088;2024-01-07T05:51:12;29.05;;;15.50;;
84763;SDS011;74992;51.072;6.088;2024-01-07T05:54:14;34.17;;;17.00;;
84763;SDS011;74992;51.072;6.088;2024-01-07T05:57:16;29.85;;;15.48;;
84763;SDS011;74992;51.072;6.088;2024-01-07T06:00:17;31.50;;;16.02;;
84763;SDS011;74992;51.072;6.088;2024-01-07T06:03:19;29.80;;;14.57;;
84763;SDS011;74992;51.072;6.088;2024-01-07T06:06:20;26.52;;;14.57;;
84763;SDS011;74992;51.072;6.088;2024-01-07T06:09:22;27.63;;;14.88;;
84763;SDS011;74992;51.072;6.088;2024-01-07T06:12:23;30.75;;;16.05;;
84763;SDS011;74992;51.072;6.088;2024-01-07T06:15:24;30.38;;;15.80;;
84763;SDS011;74992;51.072;6.088;2024-01-07T06:18:26;26.55;;;14.40;;
84763;SDS011;74992;51.072;6.088;2024-01-07T06:21:27;29.38;;;15.77;;
84763;SDS011;74992;51.072;6.088;2024-01-07T06:24:29;28.33;;;15.48;;
84763;SDS011;74992;51.072;6.088;2024-01-07T06:27:32;27.40;;;14.98;;
84763;SDS011;74992;51.072;6.088;2024-01-07T06:33:37;28.58;;;14.50;;
84763;SDS011;74992;51.072;6.088;2024-01-07T06:36:39;27.10;;;15.38;;
84763;SDS011;74992;51.072;6.088;2024-01-07T06:39:41;27.42;;;15.68;;
84763;SDS011;74992;51.072;6.088;2024-01-07T06:42:43;28.48;;;15.90;;
84763;SDS011;74992;51.072;6.088;2024-01-07T06:45:44;29.65;;;15.23;;
84763;SDS011;74992;51.072;6.088;2024-01-07T06:48:46;24.80;;;13.93;;
84763;SDS011;74992;51.072;6.088;2024-01-07T06:51:48;29.42;;;15.10;;
84763;SDS011;74992;51.072;6.088;2024-01-07T06:54:50;28.77;;;16.33;;
84763;SDS011;74992;51.072;6.088;2024-01-07T06:57:53;30.90;;;16.08;;
84763;SDS011;74992;51.072;6.088;2024-01-07T07:00:54;28.10;;;15.23;;
84763;SDS011;74992;51.072;6.088;2024-01-07T07:03:56;28.92;;;16.40;;
84763;SDS011;74992;51.072;6.088;2024-01-07T07:06:57;26.05;;;15.15;;
84763;SDS011;74992;51.072;6.088;2024-01-07T07:10:00;25.70;;;15.25;;
84763;SDS011;74992;51.072;6.088;2024-01-07T07:13:02;28.23;;;15.52;;
84763;SDS011;74992;51.072;6.088;2024-01-07T07:16:03;24.58;;;14.20;;
84763;SDS011;74992;51.072;6.088;2024-01-07T07:19:05;28.08;;;15.68;;
84763;SDS011;74992;51.072;6.088;2024-01-07T07:22:06;23.98;;;13.65;;
84763;SDS011;74992;51.072;6.088;2024-01-07T07:25:08;24.73;;;14.07;;
84763;SDS011;74992;51.072;6.088;2024-01-07T07:28:09;25.67;;;13.73;;
84763;SDS011;74992;51.072;6.088;2024-01-07T07:31:11;30.73;;;16.38;;
84763;SDS011;74992;51.072;6.088;2024-01-07T07:34:12;27.92;;;14.40;;
84763;SDS011;74992;51.072;6.088;2024-01-07T07:37:14;28.85;;;16.00;;
84763;SDS011;74992;51.072;6.088;2024-01-07T07:40:15;31.00;;;17.38;;
84763;SDS011;74992;51.072;6.088;2024-01-07T07:43:17;27.73;;;15.75;;
84763;SDS011;74992;51.072;6.088;2024-01-07T07:46:18;29.35;;;16.10;;
84763;SDS011;74992;51.072;6.088;2024-01-07T07:49:19;27.80;;;16.23;;
84763;SDS011;74992;51.072;6.088;2024-01-07T07:52:22;30.77;;;16.55;;
84763;SDS011;74992;51.072;6.088;2024-01-07T07:55:25;24.15;;;15.25;;
84763;SDS011;74992;51.072;6.088;2024-01-07T07:58:28;28.17;;;15.95;;
84763;SDS011;74992;51.072;6.088;2024-01-07T08:01:29;33.15;;;14.57;;
84763;SDS011;74992;51.072;6.088;2024-01-07T08:04:31;24.75;;;14.23;;
84763;SDS011;74992;51.072;6.088;2024-01-07T08:07:33;20.25;;;13.00;;
84763;SDS011;74992;51.072;6.088;2024-01-07T08:10:34;23.95;;;14.85;;
84763;SDS011;74992;51.072;6.088;2024-01-07T08:13:36;24.40;;;13.00;;
84763;SDS011;74992;51.072;6.088;2024-01-07T08:16:38;27.35;;;15.20;;
84763;SDS011;74992;51.072;6.088;2024-01-07T08:19:40;27.52;;;18.60;;
84763;SDS011;74992;51.072;6.088;2024-01-07T08:22:42;27.67;;;16.30;;
84763;SDS011;74992;51.072;6.088;2024-01-07T08:25:43;32.55;;;16.50;;
84763;SDS011;74992;51.072;6.088;2024-01-07T08:28:45;29.70;;;16.48;;
84763;SDS011;74992;51.072;6.088;2024-01-07T08:31:47;30.17;;;15.93;;
84763;SDS011;74992;51.072;6.088;2024-01-07T08:34:48;26.75;;;14.75;;
84763;SDS011;74992;51.072;6.088;2024-01-07T08:37:58;29.38;;;15.95;;
84763;SDS011;74992;51.072;6.088;2024-01-07T08:41:00;32.05;;;18.77;;
84763;SDS011;74992;51.072;6.088;2024-01-07T08:44:01;31.95;;;17.95;;
84763;SDS011;74992;51.072;6.088;2024-01-07T08:47:03;29.20;;;18.00;;
84763;SDS011;74992;51.072;6.088;2024-01-07T08:50:09;30.77;;;17.98;;
84763;SDS011;74992;51.072;6.088;2024-01-07T08:53:11;29.20;;;17.77;;
84763;SDS011;74992;51.072;6.088;2024-01-07T08:56:12;34.55;;;18.40;;
84763;SDS011;74992;51.072;6.088;2024-01-07T08:59:14;30.58;;;16.33;;
84763;SDS011;74992;51.072;6.088;2024-01-07T09:02:17;28.73;;;16.05;;
84763;SDS011;74992;51.072;6.088;2024-01-07T09:05:19;26.38;;;15.60;;
84763;SDS011;74992;51.072;6.088;2024-01-07T09:08:21;29.50;;;18.27;;
84763;SDS011;74992;51.072;6.088;2024-01-07T09:11:22;27.08;;;14.90;;
84763;SDS011;74992;51.072;6.088;2024-01-07T09:14:24;27.52;;;14.77;;
84763;SDS011;74992;51.072;6.088;2024-01-07T09:17:25;25.08;;;14.27;;
84763;SDS011;74992;51.072;6.088;2024-01-07T09:20:27;28.17;;;17.33;;
84763;SDS011;74992;51.072;6.088;2024-01-07T09:23:30;27.48;;;14.90;;
84763;SDS011;74992;51.072;6.088;2024-01-07T09:26:32;28.58;;;16.88;;
84763;SDS011;74992;51.072;6.088;2024-01-07T09:29:33;23.02;;;14.02;;
84763;SDS011;74992;51.072;6.088;2024-01-07T09:32:34;27.73;;;15.73;;
84763;SDS011;74992;51.072;6.088;2024-01-07T09:35:36;27.77;;;15.40;;
84763;SDS011;74992;51.072;6.088;2024-01-07T09:38:37;26.67;;;15.30;;
84763;SDS011;74992;51.072;6.088;2024-01-07T09:41:39;28.35;;;16.65;;
84763;SDS011;74992;51.072;6.088;2024-01-07T09:44:41;27.38;;;15.82;;
84763;SDS011;74992;51.072;6.088;2024-01-07T09:47:44;30.88;;;18.17;;
84763;SDS011;74992;51.072;6.088;2024-01-07T09:50:45;27.98;;;16.48;;
84763;SDS011;74992;51.072;6.088;2024-01-07T09:53:47;29.45;;;16.98;;
84763;SDS011;74992;51.072;6.088;2024-01-07T09:56:55;30.30;;;18.45;;
84763;SDS011;74992;51.072;6.088;2024-01-07T10:00:02;23.40;;;14.93;;
84763;SDS011;74992;51.072;6.088;2024-01-07T10:03:04;22.30;;;14.95;;
84763;SDS011;74992;51.072;6.088;2024-01-07T10:06:06;24.85;;;14.75;;
84763;SDS011;74992;51.072;6.088;2024-01-07T10:09:07;27.55;;;16.17;;
84763;SDS011;74992;51.072;6.088;2024-01-07T10:12:09;27.30;;;14.90;;
84763;SDS011;74992;51.072;6.088;2024-01-07T10:18:18;22.60;;;14.02;;
84763;SDS011;74992;51.072;6.088;2024-01-07T10:21:19;18.77;;;12.13;;
84763;SDS011;74992;51.072;6.088;2024-01-07T10:24:21;22.40;;;12.63;;
84763;SDS011;74992;51.072;6.088;2024-01-07T10:27:22;18.73;;;12.15;;
84763;SDS011;74992;51.072;6.088;2024-01-07T10:30:24;21.05;;;13.07;;
84763;SDS011;74992;51.072;6.088;2024-01-07T10:33:30;20.02;;;12.60;;
84763;SDS011;74992;51.072;6.088;2024-01-07T10:36:32;22.15;;;13.35;;
84763;SDS011;74992;51.072;6.088;2024-01-07T10:39:33;22.90;;;14.02;;
84763;SDS011;74992;51.072;6.088;2024-01-07T10:42:35;22.52;;;12.95;;
84763;SDS011;74992;51.072;6.088;2024-01-07T10:45:39;20.10;;;12.63;;
84763;SDS011;74992;51.072;6.088;2024-01-07T10:55:08;26.30;;;16.20;;
84763;SDS011;74992;51.072;6.088;2024-01-07T10:58:11;24.60;;;14.93;;
84763;SDS011;74992;51.072;6.088;2024-01-07T11:01:13;23.67;;;15.00;;
84763;SDS011;74992;51.072;6.088;2024-01-07T11:04:17;26.08;;;17.33;;
84763;SDS011;74992;51.072;6.088;2024-01-07T11:10:50;26.05;;;15.25;;
84763;SDS011;74992;51.072;6.088;2024-01-07T11:13:56;23.67;;;15.68;;
84763;SDS011;74992;51.072;6.088;2024-01-07T11:16:59;28.50;;;15.10;;
84763;SDS011;74992;51.072;6.088;2024-01-07T11:20:06;24.92;;;14.68;;
84763;SDS011;74992;51.072;6.088;2024-01-07T11:26:32;21.80;;;14.52;;
84763;SDS011;74992;51.072;6.088;2024-01-07T11:29:35;19.77;;;12.00;;
84763;SDS011;74992;51.072;6.088;2024-01-07T11:32:38;20.40;;;13.00;;
84763;SDS011;74992;51.072;6.088;2024-01-07T11:35:56;19.60;;;12.05;;
84763;SDS011;74992;51.072;6.088;2024-01-07T11:39:02;16.70;;;11.35;;
84763;SDS011;74992;51.072;6.088;2024-01-07T11:42:06;19.52;;;11.40;;
84763;SDS011;74992;51.072;6.088;2024-01-07T11:45:07;20.08;;;12.55;;
84763;SDS011;74992;51.072;6.088;2024-01-07T11:48:10;22.33;;;13.85;;
84763;SDS011;74992;51.072;6.088;2024-01-07T11:51:12;21.45;;;13.40;;
84763;SDS011;74992;51.072;6.088;2024-01-07T11:54:13;20.08;;;14.27;;
84763;SDS011;74992;51.072;6.088;2024-01-07T11:57:16;19.42;;;13.00;;
84763;SDS011;74992;51.072;6.088;2024-01-07T12:00:18;19.27;;;12.52;;
84763;SDS011;74992;51.072;6.088;2024-01-07T12:03:19;17.98;;;11.88;;
84763;SDS011;74992;51.072;6.088;2024-01-07T12:06:20;19.63;;;12.63;;
84763;SDS011;74992;51.072;6.088;2024-01-07T12:09:22;18.42;;;12.63;;
84763;SDS011;74992;51.072;6.088;2024-01-07T12:12:24;18.30;;;11.35;;
84763;SDS011;74992;51.072;6.088;2024-01-07T12:15:25;16.88;;;11.70;;
84763;SDS011;74992;51.072;6.088;2024-01-07T12:18:27;17.27;;;10.45;;
84763;SDS011;74992;51.072;6.088;2024-01-07T12:21:29;16.67;;;11.18;;
84763;SDS011;74992;51.072;6.088;2024-01-07T12:24:30;19.10;;;11.07;;
84763;SDS011;74992;51.072;6.088;2024-01-07T12:27:33;17.88;;;11.18;;
84763;SDS011;74992;51.072;6.088;2024-01-07T12:30:36;17.05;;;10.32;;
84763;SDS011;74992;51.072;6.088;2024-01-07T12:33:38;15.30;;;9.77;;
84763;SDS011;74992;51.072;6.088;2024-01-07T12:36:41;15.45;;;9.27;;
84763;SDS011;74992;51.072;6.088;2024-01-07T12:39:42;15.95;;;10.88;;
84763;SDS011;74992;51.072;6.088;2024-01-07T12:42:44;14.90;;;9.77;;
84763;SDS011;74992;51.072;6.088;2024-01-07T12:45:47;16.42;;;9.93;;
84763;SDS011;74992;51.072;6.088;2024-01-07T12:48:48;14.68;;;9.48;;
84763;SDS011;74992;51.072;6.088;2024-01-07T12:51:50;12.85;;;8.30;;
84763;SDS011;74992;51.072;6.088;2024-01-07T12:54:51;14.07;;;9.00;;
84763;SDS011;74992;51.072;6.088;2024-01-07T12:57:55;16.33;;;8.95;;
84763;SDS011;74992;51.072;6.088;2024-01-07T13:00:56;13.35;;;8.50;;
84763;SDS011;74992;51.072;6.088;2024-01-07T13:03:58;13.77;;;7.90;;
84763;SDS011;74992;51.072;6.088;2024-01-07T13:06:59;11.60;;;7.70;;
84763;SDS011;74992;51.072;6.088;2024-01-07T13:10:01;12.27;;;8.27;;
84763;SDS011;74992;51.072;6.088;2024-01-07T13:13:03;11.82;;;7.13;;
84763;SDS011;74992;51.072;6.088;2024-01-07T13:16:04;12.20;;;7.85;;
84763;SDS011;74992;51.072;6.088;2024-01-07T13:19:07;10.52;;;6.95;;
84763;SDS011;74992;51.072;6.088;2024-01-07T13:22:10;10.65;;;7.30;;
84763;SDS011;74992;51.072;6.088;2024-01-07T13:25:14;9.95;;;7.05;;
84763;SDS011;74992;51.072;6.088;2024-01-07T13:28:16;11.57;;;7.95;;
84763;SDS011;74992;51.072;6.088;2024-01-07T13:31:17;14.20;;;7.93;;
84763;SDS011;74992;51.072;6.088;2024-01-07T13:34:18;11.60;;;6.93;;
84763;SDS011;74992;51.072;6.088;2024-01-07T13:37:20;12.38;;;7.60;;
84763;SDS011;74992;51.072;6.088;2024-01-07T13:40:21;12.32;;;7.25;;
84763;SDS011;74992;51.072;6.088;2024-01-07T13:43:23;12.18;;;6.95;;
84763;SDS011;74992;51.072;6.088;2024-01-07T13:46:25;12.55;;;7.28;;
84763;SDS011;74992;51.072;6.088;2024-01-07T13:49:27;11.23;;;7.38;;
84763;SDS011;74992;51.072;6.088;2024-01-07T13:52:29;12.48;;;8.35;;
84763;SDS011;74992;51.072;6.088;2024-01-07T13:55:31;11.63;;;6.82;;
84763;SDS011;74992;51.072;6.088;2024-01-07T13:58:32;7.80;;;5.03;;
84763;SDS011;74992;51.072;6.088;2024-01-07T14:01:34;11.95;;;6.75;;
84763;SDS011;74992;51.072;6.088;2024-01-07T14:04:35;10.07;;;7.13;;
84763;SDS011;74992;51.072;6.088;2024-01-07T14:07:37;9.23;;;6.13;;
84763;SDS011;74992;51.072;6.088;2024-01-07T14:10:39;10.38;;;5.10;;
84763;SDS011;74992;51.072;6.088;2024-01-07T14:13:41;11.27;;;9.32;;
84763;SDS011;74992;51.072;6.088;2024-01-07T14:16:45;12.75;;;5.82;;
84763;SDS011;74992;51.072;6.088;2024-01-07T14:19:46;9.52;;;6.45;;
84763;SDS011;74992;51.072;6.088;2024-01-07T14:22:48;10.07;;;6.68;;
84763;SDS011;74992;51.072;6.088;2024-01-07T14:25:49;10.02;;;6.93;;
84763;SDS011;74992;51.072;6.088;2024-01-07T14:28:50;9.85;;;7.07;;
84763;SDS011;74992;51.072;6.088;2024-01-07T14:31:52;8.95;;;6.00;;
84763;SDS011;74992;51.072;6.088;2024-01-07T14:34:53;11.07;;;7.00;;
84763;SDS011;74992;51.072;6.088;2024-01-07T14:37:55;12.05;;;8.27;;
84763;SDS011;74992;51.072;6.088;2024-01-07T14:40:57;10.55;;;6.85;;
84763;SDS011;74992;51.072;6.088;2024-01-07T14:43:58;12.02;;;7.63;;
84763;SDS011;74992;51.072;6.088;2024-01-07T14:46:59;11.10;;;7.50;;
84763;SDS011;74992;51.072;6.088;2024-01-07T14:50:01;10.27;;;6.35;;
84763;SDS011;74992;51.072;6.088;2024-01-07T14:53:02;11.10;;;6.93;;
84763;SDS011;74992;51.072;6.088;2024-01-07T14:56:04;8.90;;;6.13;;
84763;SDS011;74992;51.072;6.088;2024-01-07T14:59:06;9.45;;;6.47;;
84763;SDS011;74992;51.072;6.088;2024-01-07T15:02:07;10.15;;;7.95;;
84763;SDS011;74992;51.072;6.088;2024-01-07T15:05:09;10.40;;;6.07;;
84763;SDS011;74992;51.072;6.088;2024-01-07T15:08:11;10.50;;;6.75;;
84763;SDS011;74992;51.072;6.088;2024-01-07T15:11:14;7.95;;;4.80;;
84763;SDS011;74992;51.072;6.088;2024-01-07T15:14:16;8.10;;;5.97;;
84763;SDS011;74992;51.072;6.088;2024-01-07T15:17:18;8.45;;;5.72;;
84763;SDS011;74992;51.072;6.088;2024-01-07T15:20:19;8.63;;;5.28;;
84763;SDS011;74992;51.072;6.088;2024-01-07T15:23:21;9.68;;;5.35;;
84763;SDS011;74992;51.072;6.088;2024-01-07T15:26:22;8.30;;;5.38;;
84763;SDS011;74992;51.072;6.088;2024-01-07T15:29:24;8.27;;;4.95;;
84763;SDS011;74992;51.072;6.088;2024-01-07T15:32:25;7.35;;;5.07;;
84763;SDS011;74992;51.072;6.088;2024-01-07T15:35:27;8.60;;;4.80;;
84763;SDS011;74992;51.072;6.088;2024-01-07T15:38:29;6.82;;;4.43;;
84763;SDS011;74992;51.072;6.088;2024-01-07T15:41:30;8.20;;;5.10;;
84763;SDS011;74992;51.072;6.088;2024-01-07T15:44:32;8.60;;;5.50;;
84763;SDS011;74992;51.072;6.088;2024-01-07T15:47:33;8.20;;;4.45;;
84763;SDS011;74992;51.072;6.088;2024-01-07T15:50:35;8.80;;;4.88;;
84763;SDS011;74992;51.072;6.088;2024-01-07T15:53:36;7.13;;;4.30;;
84763;SDS011;74992;51.072;6.088;2024-01-07T15:56:37;9.40;;;4.97;;
84763;SDS011;74992;51.072;6.088;2024-01-07T15:59:42;8.95;;;5.65;;
84763;SDS011;74992;51.072;6.088;2024-01-07T16:02:44;9.20;;;5.07;;
84763;SDS011;74992;51.072;6.088;2024-01-07T16:05:46;8.82;;;5.40;;
84763;SDS011;74992;51.072;6.088;2024-01-07T16:08:47;9.32;;;5.63;;
84763;SDS011;74992;51.072;6.088;2024-01-07T16:11:50;8.88;;;6.05;;
84763;SDS011;74992;51.072;6.088;2024-01-07T16:14:51;10.05;;;6.75;;
84763;SDS011;74992;51.072;6.088;2024-01-07T16:17:53;7.72;;;5.22;;
84763;SDS011;74992;51.072;6.088;2024-01-07T16:20:54;8.43;;;5.50;;
84763;SDS011;74992;51.072;6.088;2024-01-07T16:23:56;9.25;;;5.50;;
84763;SDS011;74992;51.072;6.088;2024-01-07T16:26:57;8.88;;;5.88;;
84763;SDS011;74992;51.072;6.088;2024-01-07T16:29:59;8.55;;;6.15;;
84763;SDS011;74992;51.072;6.088;2024-01-07T16:33:01;9.27;;;5.22;;
84763;SDS011;74992;51.072;6.088;2024-01-07T16:36:04;7.85;;;4.85;;
84763;SDS011;74992;51.072;6.088;2024-01-07T16:39:06;7.53;;;4.95;;
84763;SDS011;74992;51.072;6.088;2024-01-07T16:42:07;6.78;;;4.82;;
84763;SDS011;74992;51.072;6.088;2024-01-07T16:45:09;9.38;;;5.63;;
84763;SDS011;74992;51.072;6.088;2024-01-07T16:48:10;8.15;;;4.63;;
84763;SDS011;74992;51.072;6.088;2024-01-07T16:51:11;7.25;;;4.05;;
84763;SDS011;74992;51.072;6.088;2024-01-07T16:54:14;7.07;;;4.25;;
84763;SDS011;74992;51.072;6.088;2024-01-07T16:57:16;8.57;;;5.55;;
84763;SDS011;74992;51.072;6.088;2024-01-07T17:00:17;7.72;;;4.60;;
84763;SDS011;74992;51.072;6.088;2024-01-07T17:03:19;7.45;;;3.92;;
84763;SDS011;74992;51.072;6.088;2024-01-07T17:06:20;6.18;;;3.28;;
84763;SDS011;74992;51.072;6.088;2024-01-07T17:09:22;7.13;;;4.00;;
84763;SDS011;74992;51.072;6.088;2024-01-07T17:12:24;5.65;;;3.45;;
84763;SDS011;74992;51.072;6.088;2024-01-07T17:15:26;5.68;;;3.05;;
84763;SDS011;74992;51.072;6.088;2024-01-07T17:18:27;6.88;;;4.38;;
84763;SDS011;74992;51.072;6.088;2024-01-07T17:21:30;6.40;;;3.70;;
84763;SDS011;74992;51.072;6.088;2024-01-07T17:24:32;6.22;;;3.47;;
84763;SDS011;74992;51.072;6.088;2024-01-07T17:27:48;5.63;;;3.10;;
84763;SDS011;74992;51.072;6.088;2024-01-07T17:30:50;5.28;;;3.42;;
84763;SDS011;74992;51.072;6.088;2024-01-07T17:33:51;7.35;;;3.80;;
84763;SDS011;74992;51.072;6.088;2024-01-07T17:36:53;5.78;;;3.50;;
84763;SDS011;74992;51.072;6.088;2024-01-07T17:39:54;6.60;;;3.03;;
84763;SDS011;74992;51.072;6.088;2024-01-07T17:42:56;6.45;;;3.45;;
84763;SDS011;74992;51.072;6.088;2024-01-07T17:45:58;5.25;;;3.08;;
84763;SDS011;74992;51.072;6.088;2024-01-07T17:49:01;6.18;;;4.13;;
84763;SDS011;74992;51.072;6.088;2024-01-07T17:52:03;5.47;;;3.75;;
84763;SDS011;74992;51.072;6.088;2024-01-07T17:55:05;6.43;;;3.88;;
84763;SDS011;74992;51.072;6.088;2024-01-07T18:01:10;6.07;;;4.07;;
84763;SDS011;74992;51.072;6.088;2024-01-07T18:04:11;6.22;;;4.70;;
84763;SDS011;74992;51.072;6.088;2024-01-07T18:07:14;5.82;;;3.40;;
84763;SDS011;74992;51.072;6.088;2024-01-07T18:10:15;7.15;;;4.05;;
84763;SDS011;74992;51.072;6.088;2024-01-07T18:13:17;7.95;;;3.75;;
84763;SDS011;74992;51.072;6.088;2024-01-07T18:16:18;5.80;;;3.40;;
84763;SDS011;74992;51.072;6.088;2024-01-07T18:19:20;6.18;;;3.17;;
84763;SDS011;74992;51.072;6.088;2024-01-07T18:22:21;7.18;;;3.65;;